Terminal Aerodrome Forecast
Issued by NWS

Home | Current Version | Previous Version | Text Only | Print | Product List | Glossary Off
Versions: 1 2 3 4 5 6 7 8 9 10 11 12 13 14 15 16 17 18

000
FTUS43 KICT 151358 AAA
TAFHUT
TAF AMD
KHUT 151358Z 1514/1612 33022G30KT P6SM VCSH OVC008
     FM151500 32022G30KT P6SM OVC015
     FM151700 32022G30KT P6SM OVC025
     FM152000 31022G30KT P6SM OVC035=

USA.gov is the U.S. government's official web portal to all federal, state and local government web resources and services.